Wylde Swan — PIWS — position and weather

sailwx.info

Track history (hours):
 
Tides and Currents Weather Stations Pressure Air Temp Water Temp Dewpoint Dewpoint Depression Visibility Wind Speed Wind Dir Waves Ship Positions

Wylde Swan

Last reported at 2017-Jun-25 23:08 UTC. Time now 2017-Jun-27 10:24 UTC.
Position N 45°13' W 074°17'.

Length 45 m; draft 3.4 m.

Type: Sailing vessel. MMSI: 244074000.

Date/timePositionNaut miles runAvg speedWind from/ knotsBaromVisibWave heightAir tempDewpointWater temp
2017-Jun-25 23:08N 45°13' W 074°17'3 7.6
2017-Jun-25 22:41N 45°14' W 074°13'1 7.8
2017-Jun-25 22:30N 45°14' W 074°11'5 6.8
2017-Jun-25 21:42N 45°13' W 074°03'1 6.1
2017-Jun-25 21:30N 45°14' W 074°02'3 6.9
2017-Jun-25 21:00N 45°16' W 073°58'3 5.8
2017-Jun-25 20:30N 45°18' W 073°56'0 0.6
2017-Jun-25 20:00N 45°18' W 073°55'1 1.1
2017-Jun-25 19:30N 45°19' W 073°55'2 5.0
2017-Jun-25 19:00N 45°21' W 073°53'3 6.6
2017-Jun-25 18:30N 45°23' W 073°49'3 6.6
2017-Jun-25 18:00N 45°24' W 073°45'4 7.0
2017-Jun-25 17:30N 45°25' W 073°40'3 6.3
2017-Jun-25 17:00N 45°24' W 073°35'1 1.7
2017-Jun-25 16:30N 45°24' W 073°34'1 1.2
2017-Jun-25 16:00N 45°24' W 073°33'2 3.2
2017-Jun-25 15:30N 45°25' W 073°31'3 5.1
2017-Jun-25 15:00N 45°27' W 073°30'  
Track history (hours):
 
Tides and Currents Weather Stations Pressure Air Temp Water Temp Dewpoint Dewpoint Depression Visibility Wind Speed Wind Dir Waves Ship Positions

Wylde Swan

Last reported at 2017-Jun-25 23:08 UTC. Time now 2017-Jun-27 10:24 UTC.
Position N 45°13' W 074°17'.

Length 45 m; draft 3.4 m.

Type: Sailing vessel. MMSI: 244074000.

Date/timePositionNaut miles runAvg speedWind from/ knotsBaromVisibWave heightAir tempDewpointWater temp
2017-Jun-25 23:08N 45°13' W 074°17'3 7.6
2017-Jun-25 22:41N 45°14' W 074°13'1 7.8
2017-Jun-25 22:30N 45°14' W 074°11'5 6.8
2017-Jun-25 21:42N 45°13' W 074°03'1 6.1
2017-Jun-25 21:30N 45°14' W 074°02'3 6.9
2017-Jun-25 21:00N 45°16' W 073°58'3 5.8
2017-Jun-25 20:30N 45°18' W 073°56'0 0.6
2017-Jun-25 20:00N 45°18' W 073°55'1 1.1
2017-Jun-25 19:30N 45°19' W 073°55'2 5.0
2017-Jun-25 19:00N 45°21' W 073°53'3 6.6
2017-Jun-25 18:30N 45°23' W 073°49'3 6.6
2017-Jun-25 18:00N 45°24' W 073°45'4 7.0
2017-Jun-25 17:30N 45°25' W 073°40'3 6.3
2017-Jun-25 17:00N 45°24' W 073°35'1 1.7
2017-Jun-25 16:30N 45°24' W 073°34'1 1.2
2017-Jun-25 16:00N 45°24' W 073°33'2 3.2
2017-Jun-25 15:30N 45°25' W 073°31'3 5.1
2017-Jun-25 15:00N 45°27' W 073°30'  

Dump ship's entire track history